sensor_id;sensor_type;location;lat;lon;timestamp;temperature;humidity
39453;DHT22;25154;-33.684;151.102;2023-04-01T00:00:09;21.30;99.90
39453;DHT22;25154;-33.684;151.102;2023-04-01T00:05:12;21.40;99.90
39453;DHT22;25154;-33.684;151.102;2023-04-01T00:10:15;20.90;99.90
39453;DHT22;25154;-33.684;151.102;2023-04-01T00:15:18;20.50;99.90
39453;DHT22;25154;-33.684;151.102;2023-04-01T00:20:21;20.60;99.90
39453;DHT22;25154;-33.684;151.102;2023-04-01T00:25:24;20.50;99.90
39453;DHT22;25154;-33.684;151.102;2023-04-01T00:30:27;19.60;99.90
39453;DHT22;25154;-33.684;151.102;2023-04-01T00:35:29;18.70;99.90
39453;DHT22;25154;-33.684;151.102;2023-04-01T00:40:37;18.20;99.90
39453;DHT22;25154;-33.684;151.102;2023-04-01T00:45:42;18.00;99.90
39453;DHT22;25154;-33.684;151.102;2023-04-01T00:56:14;17.50;99.90
39453;DHT22;25154;-33.684;151.102;2023-04-01T01:01:20;17.30;99.90
39453;DHT22;25154;-33.684;151.102;2023-04-01T01:06:28;17.10;99.90
39453;DHT22;25154;-33.684;151.102;2023-04-01T01:11:57;17.00;99.90
39453;DHT22;25154;-33.684;151.102;2023-04-01T01:17:11;17.00;99.90
39453;DHT22;25154;-33.684;151.102;2023-04-01T01:27:32;16.90;99.90
39453;DHT22;25154;-33.684;151.102;2023-04-01T01:32:55;16.90;99.90
39453;DHT22;25154;-33.684;151.102;2023-04-01T01:38:06;16.90;99.90
39453;DHT22;25154;-33.684;151.102;2023-04-01T01:43:13;16.80;99.90
39453;DHT22;25154;-33.684;151.102;2023-04-01T01:48:16;16.40;99.90
39453;DHT22;25154;-33.684;151.102;2023-04-01T01:53:19;16.30;99.90
39453;DHT22;25154;-33.684;151.102;2023-04-01T01:58:44;16.20;99.90
39453;DHT22;25154;-33.684;151.102;2023-04-01T02:03:48;16.30;99.90
39453;DHT22;25154;-33.684;151.102;2023-04-01T02:09:00;16.40;99.90
39453;DHT22;25154;-33.684;151.102;2023-04-01T02:14:10;16.30;99.90
39453;DHT22;25154;-33.684;151.102;2023-04-01T02:19:13;16.20;99.90
39453;DHT22;25154;-33.684;151.102;2023-04-01T02:24:26;16.00;99.90
39453;DHT22;25154;-33.684;151.102;2023-04-01T02:29:29;16.00;99.90
39453;DHT22;25154;-33.684;151.102;2023-04-01T02:34:33;16.10;99.90
39453;DHT22;25154;-33.684;151.102;2023-04-01T02:39:35;16.10;99.90
39453;DHT22;25154;-33.684;151.102;2023-04-01T02:44:38;16.10;99.90
39453;DHT22;25154;-33.684;151.102;2023-04-01T02:49:41;16.00;99.90
39453;DHT22;25154;-33.684;151.102;2023-04-01T02:54:44;15.90;99.90
39453;DHT22;25154;-33.684;151.102;2023-04-01T02:59:47;15.80;99.90
39453;DHT22;25154;-33.684;151.102;2023-04-01T03:04:49;16.00;99.90
39453;DHT22;25154;-33.684;151.102;2023-04-01T03:09:55;16.10;99.90
39453;DHT22;25154;-33.684;151.102;2023-04-01T03:14:58;15.90;99.90
39453;DHT22;25154;-33.684;151.102;2023-04-01T03:20:01;15.80;99.90
39453;DHT22;25154;-33.684;151.102;2023-04-01T03:25:07;15.70;99.90
39453;DHT22;25154;-33.684;151.102;2023-04-01T03:30:11;15.70;99.90
39453;DHT22;25154;-33.684;151.102;2023-04-01T03:35:14;15.70;99.90
39453;DHT22;25154;-33.684;151.102;2023-04-01T03:40:17;15.80;99.90
39453;DHT22;25154;-33.684;151.102;2023-04-01T03:45:20;15.90;99.90
39453;DHT22;25154;-33.684;151.102;2023-04-01T03:50:22;15.90;99.90
39453;DHT22;25154;-33.684;151.102;2023-04-01T03:55:25;16.10;99.90
39453;DHT22;25154;-33.684;151.102;2023-04-01T04:00:29;15.90;99.90
39453;DHT22;25154;-33.684;151.102;2023-04-01T04:05:32;16.00;99.90
39453;DHT22;25154;-33.684;151.102;2023-04-01T04:10:36;16.20;99.90
39453;DHT22;25154;-33.684;151.102;2023-04-01T04:15:39;16.10;99.90
39453;DHT22;25154;-33.684;151.102;2023-04-01T04:20:47;16.30;99.90
39453;DHT22;25154;-33.684;151.102;2023-04-01T04:30:59;16.50;99.90
39453;DHT22;25154;-33.684;151.102;2023-04-01T04:36:03;16.60;99.90
39453;DHT22;25154;-33.684;151.102;2023-04-01T04:41:16;16.40;99.90
39453;DHT22;25154;-33.684;151.102;2023-04-01T04:46:19;16.30;99.90
39453;DHT22;25154;-33.684;151.102;2023-04-01T04:51:24;16.20;99.90
39453;DHT22;25154;-33.684;151.102;2023-04-01T04:56:26;16.20;99.90
39453;DHT22;25154;-33.684;151.102;2023-04-01T05:01:29;16.10;99.90
39453;DHT22;25154;-33.684;151.102;2023-04-01T05:06:32;15.90;99.90
39453;DHT22;25154;-33.684;151.102;2023-04-01T05:11:35;15.80;99.90
39453;DHT22;25154;-33.684;151.102;2023-04-01T05:16:37;15.70;99.90
39453;DHT22;25154;-33.684;151.102;2023-04-01T05:21:40;15.70;99.90
39453;DHT22;25154;-33.684;151.102;2023-04-01T05:26:43;16.00;99.90
39453;DHT22;25154;-33.684;151.102;2023-04-01T05:31:47;16.50;99.90
39453;DHT22;25154;-33.684;151.102;2023-04-01T05:36:49;16.70;99.90
39453;DHT22;25154;-33.684;151.102;2023-04-01T05:41:51;16.50;99.90
39453;DHT22;25154;-33.684;151.102;2023-04-01T05:46:54;16.50;99.90
39453;DHT22;25154;-33.684;151.102;2023-04-01T05:51:56;16.50;99.90
39453;DHT22;25154;-33.684;151.102;2023-04-01T05:56:59;16.60;99.90
39453;DHT22;25154;-33.684;151.102;2023-04-01T06:02:01;16.70;99.90
39453;DHT22;25154;-33.684;151.102;2023-04-01T06:07:15;16.70;99.90
39453;DHT22;25154;-33.684;151.102;2023-04-01T06:12:51;13.40;99.90
39453;DHT22;25154;-33.684;151.102;2023-04-01T06:23:23;16.80;99.90
39453;DHT22;25154;-33.684;151.102;2023-04-01T06:28:46;16.80;99.90
39453;DHT22;25154;-33.684;151.102;2023-04-01T06:34:08;16.70;99.90
39453;DHT22;25154;-33.684;151.102;2023-04-01T06:39:47;16.70;99.90
39453;DHT22;25154;-33.684;151.102;2023-04-01T06:50:19;16.60;99.90
39453;DHT22;25154;-33.684;151.102;2023-04-01T06:55:30;16.50;99.90
39453;DHT22;25154;-33.684;151.102;2023-04-01T07:00:40;16.50;99.90
39453;DHT22;25154;-33.684;151.102;2023-04-01T07:05:44;17.30;99.90
39453;DHT22;25154;-33.684;151.102;2023-04-01T07:11:29;18.20;99.90
39453;DHT22;25154;-33.684;151.102;2023-04-01T07:21:52;17.50;99.90
39453;DHT22;25154;-33.684;151.102;2023-04-01T07:26:58;17.10;99.90
39453;DHT22;25154;-33.684;151.102;2023-04-01T07:32:17;16.80;99.90
39453;DHT22;25154;-33.684;151.102;2023-04-01T07:37:30;16.50;99.90
39453;DHT22;25154;-33.684;151.102;2023-04-01T07:53:38;16.00;99.90
39453;DHT22;25154;-33.684;151.102;2023-04-01T08:25:25;15.40;99.90
39453;DHT22;25154;-33.684;151.102;2023-04-01T08:30:57;15.40;99.90
39453;DHT22;25154;-33.684;151.102;2023-04-01T08:36:35;15.40;99.90
39453;DHT22;25154;-33.684;151.102;2023-04-01T08:52:37;15.30;99.90
39453;DHT22;25154;-33.684;151.102;2023-04-01T09:24:26;15.20;99.90
39453;DHT22;25154;-33.684;151.102;2023-04-01T09:40:34;15.10;99.90
39453;DHT22;25154;-33.684;151.102;2023-04-01T09:45:58;15.10;99.90
39453;DHT22;25154;-33.684;151.102;2023-04-01T09:51:22;15.20;99.90
39453;DHT22;25154;-33.684;151.102;2023-04-01T10:40:12;14.70;99.90
39453;DHT22;25154;-33.684;151.102;2023-04-01T10:56:39;14.30;99.90
39453;DHT22;25154;-33.684;151.102;2023-04-01T11:02:23;14.20;99.90
39453;DHT22;25154;-33.684;151.102;2023-04-01T11:07:40;14.30;99.90
39453;DHT22;25154;-33.684;151.102;2023-04-01T11:13:20;13.60;99.90
39453;DHT22;25154;-33.684;151.102;2023-04-01T11:18:55;14.30;99.90
39453;DHT22;25154;-33.684;151.102;2023-04-01T11:40:26;14.10;99.90
39453;DHT22;25154;-33.684;151.102;2023-04-01T12:23:23;14.00;99.90
39453;DHT22;25154;-33.684;151.102;2023-04-01T12:28:41;14.00;99.90
39453;DHT22;25154;-33.684;151.102;2023-04-01T12:33:56;14.00;99.90
39453;DHT22;25154;-33.684;151.102;2023-04-01T12:39:17;14.00;99.90
39453;DHT22;25154;-33.684;151.102;2023-04-01T13:11:42;13.90;99.90
39453;DHT22;25154;-33.684;151.102;2023-04-01T13:16:57;13.80;99.90
39453;DHT22;25154;-33.684;151.102;2023-04-01T13:28:00;13.90;99.90
39453;DHT22;25154;-33.684;151.102;2023-04-01T13:33:53;13.80;99.90
39453;DHT22;25154;-33.684;151.102;2023-04-01T13:38:48;14.20;99.90
39453;DHT22;25154;-33.684;151.102;2023-04-01T13:44:11;13.80;99.90
39453;DHT22;25154;-33.684;151.102;2023-04-01T13:55:16;14.10;99.90
39453;DHT22;25154;-33.684;151.102;2023-04-01T14:00:45;14.10;99.90
39453;DHT22;25154;-33.684;151.102;2023-04-01T14:11:17;14.10;99.90
39453;DHT22;25154;-33.684;151.102;2023-04-01T14:22:33;14.20;99.90
39453;DHT22;25154;-33.684;151.102;2023-04-01T14:33:05;14.00;99.90
39453;DHT22;25154;-33.684;151.102;2023-04-01T14:54:37;14.30;99.90
39453;DHT22;25154;-33.684;151.102;2023-04-01T15:05:16;14.40;99.90
39453;DHT22;25154;-33.684;151.102;2023-04-01T15:16:15;13.40;99.90
39453;DHT22;25154;-33.684;151.102;2023-04-01T15:21:38;14.40;99.90
39453;DHT22;25154;-33.684;151.102;2023-04-01T15:27:01;14.40;99.90
39453;DHT22;25154;-33.684;151.102;2023-04-01T15:32:24;14.50;99.90
39453;DHT22;25154;-33.684;151.102;2023-04-01T15:38:19;14.50;99.90
39453;DHT22;25154;-33.684;151.102;2023-04-01T15:43:42;14.60;99.90
39453;DHT22;25154;-33.684;151.102;2023-04-01T15:49:27;14.60;99.90
39453;DHT22;25154;-33.684;151.102;2023-04-01T16:00:16;14.50;99.90
39453;DHT22;25154;-33.684;151.102;2023-04-01T16:05:42;14.40;99.90
39453;DHT22;25154;-33.684;151.102;2023-04-01T16:11:22;14.30;99.90
39453;DHT22;25154;-33.684;151.102;2023-04-01T16:27:13;14.50;99.90
39453;DHT22;25154;-33.684;151.102;2023-04-01T16:32:22;14.60;99.90
39453;DHT22;25154;-33.684;151.102;2023-04-01T16:37:50;14.60;99.90
39453;DHT22;25154;-33.684;151.102;2023-04-01T16:48:15;14.70;99.90
39453;DHT22;25154;-33.684;151.102;2023-04-01T16:53:34;14.60;99.90
39453;DHT22;25154;-33.684;151.102;2023-04-01T16:58:42;14.70;99.90
39453;DHT22;25154;-33.684;151.102;2023-04-01T17:03:51;14.60;99.90
39453;DHT22;25154;-33.684;151.102;2023-04-01T17:09:20;14.50;99.90
39453;DHT22;25154;-33.684;151.102;2023-04-01T17:25:18;14.20;99.90
39453;DHT22;25154;-33.684;151.102;2023-04-01T17:41:12;14.40;99.90
39453;DHT22;25154;-33.684;151.102;2023-04-01T17:46:54;14.50;99.90
39453;DHT22;25154;-33.684;151.102;2023-04-01T18:08:15;14.20;99.90
39453;DHT22;25154;-33.684;151.102;2023-04-01T18:39:22;14.10;99.90
39453;DHT22;25154;-33.684;151.102;2023-04-01T19:00:51;14.30;99.90
39453;DHT22;25154;-33.684;151.102;2023-04-01T19:05:55;14.30;99.90
39453;DHT22;25154;-33.684;151.102;2023-04-01T19:11:33;14.30;99.90
39453;DHT22;25154;-33.684;151.102;2023-04-01T19:22:13;14.40;99.90
39453;DHT22;25154;-33.684;151.102;2023-04-01T19:27:37;14.30;99.90
39453;DHT22;25154;-33.684;151.102;2023-04-01T19:38:27;14.50;99.90
39453;DHT22;25154;-33.684;151.102;2023-04-01T19:43:49;14.40;99.90
39453;DHT22;25154;-33.684;151.102;2023-04-01T19:49:03;14.40;99.90
39453;DHT22;25154;-33.684;151.102;2023-04-01T19:54:21;14.50;99.90
39453;DHT22;25154;-33.684;151.102;2023-04-01T20:33:17;14.50;99.90
39453;DHT22;25154;-33.684;151.102;2023-04-01T20:59:55;15.60;99.90
39453;DHT22;25154;-33.684;151.102;2023-04-01T21:05:28;11.90;99.90
39453;DHT22;25154;-33.684;151.102;2023-04-01T22:04:56;15.20;99.90
39453;DHT22;25154;-33.684;151.102;2023-04-01T22:16:10;15.40;99.90
39453;DHT22;25154;-33.684;151.102;2023-04-01T22:21:19;15.40;99.90
39453;DHT22;25154;-33.684;151.102;2023-04-01T22:26:34;15.40;99.90
39453;DHT22;25154;-33.684;151.102;2023-04-01T22:32:05;15.70;99.90
39453;DHT22;25154;-33.684;151.102;2023-04-01T22:37:31;15.80;99.90
39453;DHT22;25154;-33.684;151.102;2023-04-01T22:42:40;16.30;99.90
39453;DHT22;25154;-33.684;151.102;2023-04-01T22:47:56;16.30;99.90
39453;DHT22;25154;-33.684;151.102;2023-04-01T22:58:51;18.00;99.90
39453;DHT22;25154;-33.684;151.102;2023-04-01T23:04:00;16.40;99.90
39453;DHT22;25154;-33.684;151.102;2023-04-01T23:09:23;16.50;99.90
39453;DHT22;25154;-33.684;151.102;2023-04-01T23:14:52;16.60;99.90
39453;DHT22;25154;-33.684;151.102;2023-04-01T23:25:28;16.20;99.90
39453;DHT22;25154;-33.684;151.102;2023-04-01T23:36:12;15.70;99.90
39453;DHT22;25154;-33.684;151.102;2023-04-01T23:41:23;15.70;99.90
39453;DHT22;25154;-33.684;151.102;2023-04-01T23:46:30;15.70;99.90
39453;DHT22;25154;-33.684;151.102;2023-04-01T23:51:55;16.00;99.90
39453;DHT22;25154;-33.684;151.102;2023-04-01T23:56:59;15.70;99.90
